Time;durP1;ratioP1;P1;durP2;ratioP2;P2;SDS_P1;SDS_P2;PMS_P1;PMS_P2;Temp;Humidity;BMP_temperature;BMP_pressure;BME280_temperature;BME280_humidity;BME280_pressure;Samples;Min_cycle;Max_cycle;Signal;HPM_P1;HPM_P2
2023/10/10 00:01:04;;;;;;;20.40;6.40;;;13.50;99.90;;;;;;4922702;29;20288;-34
2023/10/10 00:03:32;;;;;;;15.43;6.03;;;13.40;99.90;;;;;;4932307;28;20181;-37
2023/10/10 00:05:59;;;;;;;14.87;5.57;;;13.40;99.90;;;;;;4920471;29;20240;-35
2023/10/10 00:08:43;;;;;;;17.43;5.70;;;13.40;99.90;;;;;;4940742;28;20184;-33
2023/10/10 00:11:18;;;;;;;17.37;5.47;;;13.40;99.90;;;;;;4927848;29;20204;-35
2023/10/10 00:13:46;;;;;;;14.63;5.43;;;13.40;99.90;;;;;;4940778;28;20251;-32
2023/10/10 00:16:23;;;;;;;18.20;5.80;;;13.30;99.90;;;;;;4924950;29;20224;-37
2023/10/10 00:18:49;;;;;;;16.83;5.30;;;13.20;99.90;;;;;;4940124;28;20673;-38
2023/10/10 00:21:28;;;;;;;18.37;6.03;;;13.20;99.90;;;;;;4937875;29;20220;-37
2023/10/10 00:23:55;;;;;;;16.93;5.63;;;13.20;99.90;;;;;;4949825;28;20200;-36
2023/10/10 00:26:25;;;;;;;17.83;5.47;;;13.10;99.90;;;;;;4924718;29;20185;-37
2023/10/10 00:28:55;;;;;;;16.20;5.53;;;13.10;99.90;;;;;;4917858;28;20195;-36
2023/10/10 00:31:22;;;;;;;21.93;6.13;;;13.00;99.90;;;;;;4957380;28;20252;-34
2023/10/10 00:33:50;;;;;;;22.20;6.50;;;12.90;99.90;;;;;;4956265;28;20223;-34
2023/10/10 00:36:30;;;;;;;17.23;5.10;;;12.90;99.90;;;;;;4922104;29;20216;-34
2023/10/10 00:44:21;;;;;;;18.63;5.50;;;13.00;99.90;;;;;;4945539;29;20181;-33
2023/10/10 00:46:53;;;;;;;13.83;4.83;;;13.10;99.90;;;;;;4921594;28;20192;-37
2023/10/10 00:49:24;;;;;;;11.57;4.30;;;13.10;99.90;;;;;;4936326;29;20305;-35
2023/10/10 00:52:06;;;;;;;14.73;4.90;;;13.00;99.90;;;;;;4936544;28;20291;-34
2023/10/10 00:54:39;;;;;;;15.17;5.60;;;13.00;99.90;;;;;;4921974;28;20213;-35
2023/10/10 00:57:08;;;;;;;11.73;5.40;;;13.00;99.90;;;;;;4927882;28;20251;-36
2023/10/10 00:59:42;;;;;;;18.43;5.23;;;12.90;99.90;;;;;;4925314;28;20186;-35
2023/10/10 01:02:13;;;;;;;11.83;4.60;;;12.90;99.90;;;;;;4918501;29;20225;-34
2023/10/10 01:04:48;;;;;;;16.17;4.87;;;12.90;99.90;;;;;;4924530;28;20224;-35
2023/10/10 01:07:18;;;;;;;15.87;4.93;;;12.90;99.90;;;;;;4918070;29;20196;-33
2023/10/10 01:12:56;;;;;;;14.97;4.80;;;12.90;99.90;;;;;;4942482;28;20277;-36
2023/10/10 01:15:34;;;;;;;12.80;5.07;;;12.80;99.90;;;;;;4919185;29;20221;-33
2023/10/10 01:18:00;;;;;;;11.90;5.17;;;12.70;99.90;;;;;;4930240;29;20268;-35
2023/10/10 01:20:36;;;;;;;14.53;5.60;;;12.60;99.90;;;;;;4928664;28;20299;-34
2023/10/10 01:23:03;;;;;;;12.60;4.80;;;12.50;99.90;;;;;;4938775;28;20283;-37
2023/10/10 01:28:13;;;;;;;17.03;5.27;;;12.30;99.90;;;;;;4953862;28;20198;-35
2023/10/10 01:30:57;;;;;;;12.43;4.90;;;12.30;99.90;;;;;;4920801;28;20208;-33
2023/10/10 01:33:41;;;;;;;14.13;5.03;;;12.30;99.90;;;;;;4935674;28;20199;-38
2023/10/10 01:36:12;;;;;;;14.60;5.30;;;12.40;99.90;;;;;;4945068;29;20212;-35
2023/10/10 01:38:56;;;;;;;15.80;5.00;;;12.40;99.90;;;;;;4921102;28;20587;-34
2023/10/10 01:41:41;;;;;;;10.83;5.10;;;12.50;99.90;;;;;;4927733;29;20216;-37
2023/10/10 01:44:12;;;;;;;13.93;4.37;;;12.50;99.90;;;;;;4930433;29;20183;-33
2023/10/10 01:46:40;;;;;;;14.50;4.60;;;12.50;99.90;;;;;;4935983;28;20188;-34
2023/10/10 01:49:13;;;;;;;13.70;4.63;;;12.50;99.90;;;;;;4940986;28;20192;-34
2023/10/10 01:51:43;;;;;;;14.73;5.30;;;12.50;99.90;;;;;;4922602;29;20222;-34
2023/10/10 01:54:15;;;;;;;14.30;5.40;;;12.50;99.90;;;;;;4920301;29;20207;-33
2023/10/10 01:56:45;;;;;;;14.73;5.63;;;12.40;99.90;;;;;;4922504;28;20213;-34
2023/10/10 01:59:17;;;;;;;14.73;5.47;;;12.30;99.90;;;;;;4932768;29;20194;-35
2023/10/10 02:01:42;;;;;;;14.77;5.10;;;12.30;99.90;;;;;;4921382;28;20204;-34
2023/10/10 02:04:10;;;;;;;14.63;5.50;;;12.30;99.90;;;;;;4954415;28;20194;-32
2023/10/10 02:06:39;;;;;;;16.30;4.90;;;12.20;99.90;;;;;;4932210;28;20188;-33
2023/10/10 02:12:15;;;;;;;15.43;5.17;;;12.20;99.90;;;;;;4860173;29;20211;-34
2023/10/10 02:14:44;;;;;;;15.07;4.90;;;12.10;99.90;;;;;;4914094;28;20207;-34
2023/10/10 02:17:39;;;;;;;15.27;5.00;;;12.10;99.90;;;;;;4935958;29;20359;-36
2023/10/10 02:20:19;;;;;;;14.93;4.80;;;12.00;99.90;;;;;;4934897;29;20242;-36
2023/10/10 02:22:54;;;;;;;15.73;5.40;;;12.00;99.90;;;;;;4921397;28;20290;-39
2023/10/10 02:27:55;;;;;;;14.50;5.37;;;12.00;99.90;;;;;;4933959;28;20186;-40
2023/10/10 02:30:35;;;;;;;13.00;5.53;;;12.00;99.90;;;;;;4950202;28;20206;-35
2023/10/10 02:33:05;;;;;;;13.87;4.63;;;12.10;99.90;;;;;;4928375;28;20191;-39
2023/10/10 02:35:42;;;;;;;16.43;5.27;;;12.10;99.90;;;;;;4919702;29;20212;-38
2023/10/10 02:38:11;;;;;;;13.97;5.23;;;12.20;99.90;;;;;;4918525;28;20308;-35
2023/10/10 02:40:42;;;;;;;18.77;5.90;;;12.30;99.90;;;;;;4942190;28;20205;-38
2023/10/10 02:43:33;;;;;;;11.20;5.47;;;12.40;99.90;;;;;;4935551;29;20192;-38
2023/10/10 02:46:00;;;;;;;17.63;5.47;;;12.40;99.90;;;;;;4919736;28;20192;-36
2023/10/10 02:48:32;;;;;;;16.20;5.33;;;12.30;99.90;;;;;;4918760;29;20187;-38
2023/10/10 02:51:03;;;;;;;16.47;5.07;;;12.30;99.90;;;;;;4935783;28;20229;-36
2023/10/10 02:53:32;;;;;;;20.30;6.17;;;12.30;99.90;;;;;;4923496;28;20198;-34
2023/10/10 02:56:01;;;;;;;15.57;5.27;;;12.30;99.90;;;;;;4934466;28;20220;-34
2023/10/10 02:58:28;;;;;;;19.60;5.50;;;12.20;99.90;;;;;;4934450;29;20307;-37
2023/10/10 03:00:57;;;;;;;15.87;6.13;;;12.20;99.90;;;;;;4934839;28;20322;-37
2023/10/10 03:03:26;;;;;;;12.53;5.27;;;12.20;99.90;;;;;;4949554;28;20188;-37
2023/10/10 03:05:54;;;;;;;19.03;5.80;;;12.20;99.90;;;;;;4954699;28;20703;-37
2023/10/10 03:11:15;;;;;;;17.43;5.43;;;12.20;99.90;;;;;;4934152;28;20204;-37
2023/10/10 03:13:54;;;;;;;15.20;5.80;;;12.10;99.90;;;;;;4933759;28;20195;-34
2023/10/10 03:29:21;;;;;;;15.43;5.50;;;11.90;99.90;;;;;;4939155;29;20187;-37
2023/10/10 03:31:55;;;;;;;15.47;5.50;;;11.80;99.90;;;;;;4956003;28;20214;-35
2023/10/10 03:34:34;;;;;;;11.47;5.17;;;11.70;99.90;;;;;;4957620;28;20191;-40
2023/10/10 03:37:20;;;;;;;14.50;5.27;;;11.70;99.90;;;;;;4938876;28;20759;-37
2023/10/10 03:39:57;;;;;;;18.47;5.53;;;11.70;99.90;;;;;;4931628;28;20325;-39
2023/10/10 05:24:20;;;;;;;13.07;5.30;;;11.10;99.90;;;;;;4959826;28;20220;-37
2023/10/10 05:26:47;;;;;;;13.70;5.07;;;11.00;99.90;;;;;;4945845;28;20204;-39
2023/10/10 05:29:19;;;;;;;12.77;4.40;;;10.90;99.90;;;;;;4937037;28;20192;-40
2023/10/10 05:31:51;;;;;;;13.40;5.10;;;10.90;99.90;;;;;;4946445;28;20237;-40
2023/10/10 05:34:23;;;;;;;10.87;4.40;;;10.90;99.90;;;;;;4945098;28;20193;-39
2023/10/10 05:36:49;;;;;;;13.33;5.03;;;10.90;99.90;;;;;;4925540;29;20316;-36
2023/10/10 05:39:20;;;;;;;13.50;4.83;;;10.90;99.90;;;;;;4930897;29;20277;-37
2023/10/10 05:41:47;;;;;;;11.47;5.37;;;10.80;99.90;;;;;;4929745;29;20233;-38
2023/10/10 05:44:16;;;;;;;10.90;4.67;;;10.80;99.90;;;;;;4935032;28;20196;-35
2023/10/10 05:46:43;;;;;;;11.13;4.47;;;10.80;99.90;;;;;;4916884;29;20186;-39
2023/10/10 05:49:09;;;;;;;14.27;5.37;;;10.80;99.90;;;;;;4921327;28;20227;-37
2023/10/10 05:51:35;;;;;;;12.27;4.90;;;10.70;99.90;;;;;;4953244;28;20276;-38
2023/10/10 05:54:01;;;;;;;11.87;4.50;;;10.70;99.90;;;;;;4921103;28;20190;-39
2023/10/10 05:56:29;;;;;;;9.43;4.87;;;10.70;99.90;;;;;;4920164;29;20209;-39
2023/10/10 05:58:56;;;;;;;11.53;4.97;;;10.70;99.90;;;;;;4928655;28;20192;-36
2023/10/10 06:01:23;;;;;;;10.50;5.03;;;10.70;99.90;;;;;;4932475;29;20220;-38
2023/10/10 06:03:51;;;;;;;13.97;5.63;;;10.70;99.90;;;;;;4936601;29;20193;-37
2023/10/10 06:06:18;;;;;;;12.33;4.90;;;10.70;99.90;;;;;;4936113;29;20225;-34
2023/10/10 06:08:44;;;;;;;19.60;5.33;;;10.70;99.90;;;;;;4936216;29;20190;-38
2023/10/10 06:11:14;;;;;;;9.77;4.97;;;10.80;99.90;;;;;;4935722;28;20216;-39
2023/10/10 06:13:40;;;;;;;12.73;5.00;;;10.80;99.90;;;;;;4920687;29;20197;-38
2023/10/10 06:16:14;;;;;;;13.63;5.73;;;10.90;99.90;;;;;;4930263;28;20288;-39
2023/10/10 06:18:44;;;;;;;12.67;5.30;;;10.90;99.90;;;;;;4924250;29;20244;-37
2023/10/10 06:21:11;;;;;;;15.77;5.40;;;11.00;99.90;;;;;;4925476;28;20217;-35
2023/10/10 06:23:37;;;;;;;16.83;5.90;;;11.00;99.90;;;;;;4919558;29;20282;-35
2023/10/10 06:26:06;;;;;;;12.80;5.50;;;11.10;99.90;;;;;;4919910;29;20205;-33
2023/10/10 06:28:53;;;;;;;13.27;5.80;;;11.20;99.90;;;;;;4934074;29;20183;-40
2023/10/10 06:31:20;;;;;;;14.37;4.97;;;11.30;99.90;;;;;;4935421;28;20212;-39
2023/10/10 06:33:49;;;;;;;13.90;5.93;;;11.40;99.90;;;;;;4919965;29;20591;-40
2023/10/10 06:38:46;;;;;;;14.60;5.60;;;11.60;99.90;;;;;;4952564;28;20242;-39
2023/10/10 06:41:17;;;;;;;17.83;6.33;;;11.70;99.90;;;;;;4938021;28;20205;-34
2023/10/10 06:43:51;;;;;;;14.13;7.33;;;11.70;99.90;;;;;;4931708;29;20185;-39
2023/10/10 06:46:32;;;;;;;13.13;7.10;;;11.80;99.90;;;;;;4937034;28;20191;-31
2023/10/10 06:49:07;;;;;;;13.77;6.37;;;11.90;99.90;;;;;;4953539;28;20232;-33
2023/10/10 06:51:39;;;;;;;17.03;6.50;;;12.00;99.90;;;;;;4924976;28;20212;-35
2023/10/10 06:54:09;;;;;;;15.93;7.23;;;12.10;99.90;;;;;;4964579;28;20200;-31
2023/10/10 06:56:44;;;;;;;13.07;7.20;;;12.20;99.90;;;;;;4924046;28;20324;-33
2023/10/10 06:59:16;;;;;;;18.37;7.90;;;12.30;99.90;;;;;;4951829;28;20192;-35
2023/10/10 07:01:45;;;;;;;18.13;6.80;;;12.40;99.90;;;;;;4934695;29;20207;-36
2023/10/10 07:04:13;;;;;;;18.47;6.43;;;12.40;99.90;;;;;;4921682;28;20184;-35
2023/10/10 07:06:44;;;;;;;14.77;5.33;;;12.60;99.90;;;;;;4938623;28;20218;-39
2023/10/10 07:09:29;;;;;;;12.10;5.87;;;12.70;99.90;;;;;;4942153;28;20188;-32
2023/10/10 07:12:11;;;;;;;17.17;6.23;;;12.70;99.90;;;;;;4934980;29;20210;-34
2023/10/10 07:14:45;;;;;;;16.47;5.97;;;12.80;99.90;;;;;;4933965;29;20199;-36
2023/10/10 07:17:14;;;;;;;19.00;5.97;;;12.80;99.90;;;;;;4937433;28;20215;-34
2023/10/10 07:22:34;;;;;;;17.07;5.93;;;12.90;99.90;;;;;;4950558;28;20745;-31
2023/10/10 07:25:07;;;;;;;15.40;6.63;;;13.00;99.90;;;;;;4927934;28;20201;-34
2023/10/10 07:27:39;;;;;;;11.67;5.90;;;13.10;99.90;;;;;;4922286;29;20194;-32
2023/10/10 07:32:48;;;;;;;16.90;5.80;;;13.20;99.90;;;;;;4954672;28;20187;-33
2023/10/10 07:35:23;;;;;;;12.80;5.60;;;13.20;99.90;;;;;;4924609;28;20193;-34
2023/10/10 07:37:52;;;;;;;19.13;6.30;;;13.20;99.90;;;;;;4919841;29;20181;-36
2023/10/10 07:40:28;;;;;;;16.33;6.40;;;13.40;99.90;;;;;;4935452;28;20260;-36
2023/10/10 07:42:58;;;;;;;19.67;6.27;;;13.40;99.90;;;;;;4921725;29;20192;-36
2023/10/10 07:45:30;;;;;;;15.80;6.30;;;13.50;99.90;;;;;;4938864;28;20185;-36
2023/10/10 07:50:35;;;;;;;23.67;7.30;;;13.80;99.90;;;;;;4953793;28;20205;-37
2023/10/10 07:53:12;;;;;;;17.07;6.40;;;13.80;99.90;;;;;;4916486;28;20189;-35
2023/10/10 07:58:27;;;;;;;16.60;6.03;;;14.00;99.90;;;;;;4950565;28;20186;-32
2023/10/10 08:01:07;;;;;;;12.57;5.33;;;14.10;99.90;;;;;;4926318;28;20299;-35
2023/10/10 08:03:34;;;;;;;16.73;6.13;;;14.20;99.90;;;;;;4938588;28;20184;-36
2023/10/10 08:06:00;;;;;;;16.00;6.47;;;14.30;99.90;;;;;;4929294;29;20271;-35
2023/10/10 08:08:26;;;;;;;14.53;5.80;;;14.40;99.90;;;;;;4921471;29;20285;-32
2023/10/10 08:10:52;;;;;;;12.03;5.80;;;14.50;99.90;;;;;;4937651;29;20205;-36
2023/10/10 08:13:20;;;;;;;17.33;6.03;;;14.50;99.90;;;;;;4935830;28;20189;-38
2023/10/10 08:15:56;;;;;;;17.30;6.03;;;14.60;99.90;;;;;;4938681;29;20200;-36
2023/10/10 08:21:10;;;;;;;15.73;5.80;;;14.80;99.90;;;;;;4955161;28;20713;-36
2023/10/10 08:23:45;;;;;;;17.63;5.70;;;14.90;99.90;;;;;;4924332;29;20225;-34
2023/10/10 08:26:18;;;;;;;15.73;5.87;;;15.00;99.90;;;;;;4920588;28;20227;-36
2023/10/10 08:28:48;;;;;;;11.70;5.03;;;15.10;99.90;;;;;;4938404;29;20367;-34
2023/10/10 08:31:15;;;;;;;14.67;5.60;;;15.20;99.90;;;;;;4946210;28;20204;-34
2023/10/10 08:33:45;;;;;;;12.07;5.73;;;15.40;99.90;;;;;;4922241;29;20348;-37
2023/10/10 08:36:23;;;;;;;14.80;5.20;;;15.60;99.90;;;;;;4922985;28;20212;-34
2023/10/10 08:38:57;;;;;;;19.83;6.03;;;15.70;99.90;;;;;;4947603;29;20181;-35
2023/10/10 08:41:29;;;;;;;13.30;5.40;;;15.90;99.90;;;;;;4936817;28;20213;-34
2023/10/10 08:44:01;;;;;;;14.77;5.40;;;16.00;99.90;;;;;;4922097;29;20232;-32
2023/10/10 08:46:31;;;;;;;11.57;5.13;;;16.10;99.90;;;;;;4932850;28;20188;-34
2023/10/10 08:49:04;;;;;;;14.13;5.53;;;16.20;99.90;;;;;;4957409;28;20193;-36
2023/10/10 08:51:34;;;;;;;11.03;5.00;;;16.30;99.90;;;;;;4921241;29;20205;-34
2023/10/10 08:54:09;;;;;;;13.38;4.97;;;16.40;99.90;;;;;;4921842;29;20197;-37
2023/10/10 08:57:26;;;;;;;12.07;5.30;;;16.50;99.90;;;;;;4933781;29;20205;-37
2023/10/10 08:59:42;;;;;;;10.70;5.40;;;16.60;99.90;;;;;;4935580;29;20189;-32
2023/10/10 09:02:17;;;;;;;19.00;5.05;;;16.70;99.90;;;;;;4937678;28;20199;-33
2023/10/10 09:04:44;;;;;;;16.00;5.28;;;16.90;99.90;;;;;;4925335;29;20184;-39
2023/10/10 09:07:30;;;;;;;12.27;5.70;;;17.10;99.90;;;;;;4921647;28;20209;-34
2023/10/10 09:10:06;;;;;;;13.85;4.88;;;17.20;99.90;;;;;;4923942;29;20333;-37
2023/10/10 09:12:34;;;;;;;13.07;5.03;;;17.40;99.90;;;;;;4936473;29;20181;-34
2023/10/10 09:15:16;;;;;;;12.82;5.05;;;17.60;99.90;;;;;;4954757;28;20268;-32
2023/10/10 09:17:42;;;;;;;15.55;4.53;;;17.60;99.90;;;;;;4940694;28;20276;-34
2023/10/10 09:20:50;;;;;;;14.82;5.13;;;17.70;99.90;;;;;;4931566;28;20287;-32
2023/10/10 09:23:04;;;;;;;13.85;4.97;;;17.90;99.90;;;;;;4926993;29;20201;-35
2023/10/10 09:25:44;;;;;;;12.38;5.20;;;18.10;99.90;;;;;;4940000;28;20181;-38
2023/10/10 09:28:15;;;;;;;12.95;5.20;;;18.20;99.90;;;;;;4933711;28;20193;-35
2023/10/10 09:30:45;;;;;;;16.48;4.95;;;18.30;99.90;;;;;;4937175;29;20212;-35
2023/10/10 09:33:28;;;;;;;13.77;4.53;;;18.30;99.90;;;;;;4937700;28;20189;-34
2023/10/10 09:36:08;;;;;;;17.17;5.40;;;18.50;99.90;;;;;;4940340;28;20212;-34
2023/10/10 09:38:48;;;;;;;13.63;4.80;;;18.60;99.90;;;;;;4935882;29;20193;-36
2023/10/10 09:41:28;;;;;;;16.17;4.85;;;18.70;99.90;;;;;;4919157;28;20209;-36
2023/10/10 10:00:46;;;;;;;11.50;4.93;;;19.50;99.90;;;;;;4944353;28;20209;-37
2023/10/10 10:09:19;;;;;;;14.90;4.40;;;19.70;99.90;;;;;;4942717;28;20225;-35
2023/10/10 10:11:56;;;;;;;17.80;5.20;;;19.80;99.90;;;;;;4923272;29;20255;-34
2023/10/10 10:14:35;;;;;;;8.75;4.43;;;19.90;99.90;;;;;;4936163;28;20189;-39
2023/10/10 10:17:13;;;;;;;17.25;4.40;;;20.00;99.90;;;;;;4944021;29;20304;-38
2023/10/10 10:19:45;;;;;;;12.23;4.35;;;20.10;99.90;;;;;;4940734;28;20191;-39
2023/10/10 10:22:18;;;;;;;12.35;3.92;;;20.20;99.90;;;;;;4923100;29;20263;-37
2023/10/10 10:24:45;;;;;;;15.85;4.65;;;20.40;99.90;;;;;;4919837;29;20242;-39
2023/10/10 10:27:39;;;;;;;13.05;5.20;;;20.40;99.90;;;;;;4952636;28;20185;-35
2023/10/10 10:32:46;;;;;;;12.20;4.63;;;20.70;99.90;;;;;;4940007;28;20247;-37
2023/10/10 10:35:24;;;;;;;12.68;5.05;;;20.80;99.90;;;;;;4951461;28;20209;-37
2023/10/10 10:37:59;;;;;;;13.40;4.82;;;20.90;99.90;;;;;;4939036;28;20187;-35
2023/10/10 10:43:16;;;;;;;12.90;5.00;;;21.00;99.90;;;;;;4931822;29;20381;-37
2023/10/10 10:45:51;;;;;;;17.73;5.50;;;21.10;99.90;;;;;;4924227;28;20239;-38
2023/10/10 10:48:29;;;;;;;17.00;5.13;;;21.10;99.90;;;;;;4972664;28;20196;-36
2023/10/10 10:51:32;;;;;;;13.68;5.10;;;21.20;99.90;;;;;;4937723;29;20273;-39
2023/10/10 10:53:58;;;;;;;15.38;4.45;;;21.20;99.90;;;;;;4934811;28;20227;-39
2023/10/10 10:56:37;;;;;;;17.98;4.95;;;21.30;99.90;;;;;;4947659;28;20208;-38
2023/10/10 10:59:20;;;;;;;15.57;4.60;;;21.40;99.90;;;;;;4920018;29;20192;-39
2023/10/10 11:01:55;;;;;;;17.27;5.18;;;21.50;99.90;;;;;;4947932;28;20293;-39
2023/10/10 11:04:46;;;;;;;20.95;5.93;;;21.50;99.90;;;;;;4922428;28;20192;-37
2023/10/10 11:07:25;;;;;;;15.23;4.93;;;21.60;99.90;;;;;;4929277;29;20217;-38
2023/10/10 11:10:06;;;;;;;12.73;4.55;;;21.70;99.90;;;;;;4932193;29;20594;-39
2023/10/10 11:13:07;;;;;;;15.27;4.72;;;21.90;99.90;;;;;;4922460;28;20189;-35
2023/10/10 11:15:38;;;;;;;13.38;4.80;;;22.00;99.90;;;;;;4942690;28;20229;-33
2023/10/10 11:18:12;;;;;;;16.70;4.30;;;22.20;99.90;;;;;;4961853;29;20205;-35
2023/10/10 11:20:57;;;;;;;11.18;4.78;;;22.20;99.90;;;;;;4947452;29;20209;-33
2023/10/10 11:23:38;;;;;;;11.73;4.28;;;22.30;99.90;;;;;;4923753;28;20208;-34
2023/10/10 11:26:15;;;;;;;13.77;4.57;;;22.40;99.90;;;;;;4946383;28;20209;-40
2023/10/10 11:28:48;;;;;;;14.52;4.47;;;22.50;99.90;;;;;;4929847;28;20260;-38
2023/10/10 11:31:47;;;;;;;16.80;4.30;;;22.60;99.90;;;;;;4969013;28;20249;-37
2023/10/10 11:34:42;;;;;;;17.77;4.43;;;22.80;99.90;;;;;;4954813;28;20189;-37
2023/10/10 11:37:20;;;;;;;19.48;4.55;;;22.90;99.90;;;;;;4944889;28;20201;-41
2023/10/10 11:39:55;;;;;;;13.48;4.70;;;23.00;99.90;;;;;;4940565;28;20251;-31
2023/10/10 11:42:35;;;;;;;15.70;5.03;;;23.10;99.90;;;;;;4921000;28;20213;-39
2023/10/10 11:45:05;;;;;;;14.30;4.57;;;23.10;99.90;;;;;;4940937;28;20188;-32
2023/10/10 11:47:42;;;;;;;11.68;4.45;;;23.30;99.90;;;;;;4932740;28;20193;-35
2023/10/10 11:50:11;;;;;;;14.82;4.40;;;23.40;99.90;;;;;;4925287;28;20211;-36
2023/10/10 11:52:57;;;;;;;16.42;5.03;;;23.40;99.90;;;;;;4941841;28;20185;-36
2023/10/10 11:55:27;;;;;;;15.20;4.65;;;23.40;99.90;;;;;;4928146;28;20252;-31
2023/10/10 11:57:58;;;;;;;14.18;4.57;;;23.50;99.90;;;;;;4939693;28;20188;-34
2023/10/10 12:00:42;;;;;;;14.48;4.57;;;23.50;99.90;;;;;;4944587;28;20196;-34
2023/10/10 12:03:11;;;;;;;13.63;4.50;;;23.60;99.90;;;;;;4943911;28;20184;-36
2023/10/10 12:05:49;;;;;;;14.30;4.57;;;23.70;99.90;;;;;;4929995;28;20185;-36
2023/10/10 12:08:22;;;;;;;9.18;4.25;;;23.70;99.90;;;;;;4947239;28;20212;-36
2023/10/10 12:10:52;;;;;;;14.20;4.57;;;23.80;99.90;;;;;;4930293;28;20201;-32
2023/10/10 12:13:44;;;;;;;12.82;4.55;;;24.00;99.90;;;;;;4945566;28;20201;-37
2023/10/10 12:16:10;;;;;;;11.25;4.90;;;24.10;99.90;;;;;;4944790;28;20275;-36
2023/10/10 12:18:44;;;;;;;18.80;5.22;;;24.10;99.90;;;;;;4926589;28;20190;-35
2023/10/10 12:21:14;;;;;;;16.42;4.97;;;24.10;99.90;;;;;;4946197;28;20202;-34
2023/10/10 12:23:41;;;;;;;12.05;4.43;;;24.20;99.90;;;;;;4928379;28;20291;-32
2023/10/10 12:26:11;;;;;;;13.32;4.47;;;24.30;99.90;;;;;;4943457;28;20204;-35
2023/10/10 12:28:38;;;;;;;11.45;4.30;;;24.30;99.90;;;;;;4923921;28;20176;-35
2023/10/10 12:31:08;;;;;;;16.15;4.38;;;24.30;99.90;;;;;;4931579;28;20205;-38
2023/10/10 12:33:37;;;;;;;12.85;4.55;;;24.30;99.90;;;;;;4942826;28;20181;-36
2023/10/10 12:36:09;;;;;;;15.02;5.15;;;24.40;99.90;;;;;;4941152;28;20300;-37
2023/10/10 12:38:37;;;;;;;10.73;4.18;;;24.50;99.90;;;;;;4931524;28;20186;-35
2023/10/10 12:41:20;;;;;;;14.85;4.35;;;24.50;99.90;;;;;;4927806;28;20205;-36
2023/10/10 12:43:46;;;;;;;16.40;5.07;;;24.50;99.90;;;;;;4942585;28;20194;-35
2023/10/10 12:46:16;;;;;;;11.43;4.50;;;24.50;99.90;;;;;;4930988;28;20645;-33
2023/10/10 12:48:43;;;;;;;14.80;5.00;;;24.40;99.90;;;;;;4931428;28;20189;-35
2023/10/10 12:51:10;;;;;;;16.67;4.65;;;24.50;99.90;;;;;;4944001;28;20201;-39
2023/10/10 12:53:42;;;;;;;13.38;4.85;;;24.60;99.90;;;;;;4944776;28;20191;-34
2023/10/10 12:56:11;;;;;;;11.65;3.80;;;24.60;99.90;;;;;;4923363;28;20306;-36
2023/10/10 12:58:43;;;;;;;14.38;4.95;;;24.70;99.90;;;;;;4918832;28;20197;-33
2023/10/10 13:01:12;;;;;;;8.90;3.95;;;24.70;99.90;;;;;;4926272;28;20204;-35
2023/10/10 13:03:38;;;;;;;9.80;4.60;;;24.80;99.90;;;;;;4938922;28;20188;-33
2023/10/10 13:06:06;;;;;;;14.15;4.90;;;24.90;99.90;;;;;;4965175;28;20185;-33
2023/10/10 13:08:47;;;;;;;16.55;4.97;;;24.90;99.90;;;;;;4933359;28;20225;-38
2023/10/10 13:12:02;;;;;;;9.32;4.03;;;24.90;99.90;;;;;;4936131;29;20201;-34
2023/10/10 13:14:10;;;;;;;14.10;4.80;;;25.00;99.90;;;;;;4942434;28;20272;-33
2023/10/10 13:19:09;;;;;;;14.07;4.88;;;25.20;99.90;;;;;;4954772;28;20185;-35
2023/10/10 13:21:36;;;;;;;13.05;4.78;;;25.30;99.90;;;;;;4926261;28;20664;-36
2023/10/10 13:24:09;;;;;;;14.27;5.05;;;25.20;99.90;;;;;;4925171;29;20201;-35
2023/10/10 13:26:50;;;;;;;12.18;4.95;;;25.20;99.90;;;;;;4918992;28;20184;-35
2023/10/10 13:29:18;;;;;;;15.23;4.57;;;25.20;99.90;;;;;;4924902;28;20275;-36
2023/10/10 13:31:45;;;;;;;11.05;4.53;;;25.20;99.90;;;;;;4920005;28;20301;-36
2023/10/10 13:34:11;;;;;;;10.73;4.60;;;25.30;99.90;;;;;;4924774;29;20190;-33
2023/10/10 13:36:37;;;;;;;10.30;4.63;;;25.30;99.90;;;;;;4923883;28;20296;-37
2023/10/10 13:39:07;;;;;;;13.70;4.60;;;25.30;99.90;;;;;;4945253;29;20249;-38
2023/10/10 13:41:35;;;;;;;11.77;4.68;;;25.30;99.90;;;;;;4924454;28;20197;-38
2023/10/10 13:44:03;;;;;;;14.93;4.80;;;25.30;99.90;;;;;;4924311;28;20181;-39
2023/10/10 13:46:34;;;;;;;11.73;4.63;;;25.20;99.90;;;;;;4926397;28;20272;-39
2023/10/10 13:49:03;;;;;;;14.38;4.65;;;25.20;99.90;;;;;;4945239;28;20192;-35
2023/10/10 13:51:29;;;;;;;10.05;4.00;;;25.10;99.90;;;;;;4928158;28;20206;-37
2023/10/10 13:53:56;;;;;;;10.55;4.35;;;25.10;99.90;;;;;;4944808;28;20185;-37
2023/10/10 13:56:23;;;;;;;8.68;4.28;;;25.10;99.90;;;;;;4939676;28;20209;-38
2023/10/10 13:58:52;;;;;;;8.93;4.32;;;25.10;99.90;;;;;;4943596;28;20189;-37
2023/10/10 14:04:15;;;;;;;8.88;4.25;;;24.90;99.90;;;;;;4942833;28;20256;-34
2023/10/10 14:06:45;;;;;;;9.35;4.00;;;25.00;99.90;;;;;;4943504;28;20188;-39
2023/10/10 14:09:25;;;;;;;11.65;4.13;;;24.90;99.90;;;;;;4958639;28;20185;-37
2023/10/10 14:12:01;;;;;;;11.35;4.38;;;24.90;99.90;;;;;;4938187;28;20225;-40
2023/10/10 14:14:30;;;;;;;9.15;4.25;;;24.90;99.90;;;;;;4931320;28;20186;-39
2023/10/10 14:17:05;;;;;;;9.10;4.43;;;24.90;99.90;;;;;;4936546;28;20212;-38
2023/10/10 14:19:46;;;;;;;8.65;3.80;;;24.90;99.90;;;;;;4930461;28;20203;-38
2023/10/10 14:22:12;;;;;;;9.25;4.00;;;24.90;99.90;;;;;;4930476;28;20267;-39
2023/10/10 14:24:49;;;;;;;9.98;4.90;;;25.10;99.90;;;;;;4934509;28;20181;-39
2023/10/10 14:27:25;;;;;;;10.93;4.72;;;25.20;99.90;;;;;;4942072;28;20187;-39
2023/10/10 14:30:25;;;;;;;9.27;4.10;;;25.40;99.90;;;;;;4941223;28;20192;-39
2023/10/10 14:32:59;;;;;;;7.07;3.95;;;25.60;99.90;;;;;;4941870;28;20199;-38
2023/10/10 14:35:26;;;;;;;10.10;4.05;;;25.80;99.90;;;;;;4935911;28;20215;-39
2023/10/10 14:38:00;;;;;;;11.30;4.10;;;26.00;99.90;;;;;;4941825;28;20180;-39
2023/10/10 14:40:28;;;;;;;10.85;4.32;;;26.00;99.90;;;;;;4942144;28;20205;-39
2023/10/10 14:42:56;;;;;;;9.43;4.80;;;26.20;99.90;;;;;;4942562;28;20228;-40
2023/10/10 14:45:28;;;;;;;9.75;4.75;;;26.10;99.90;;;;;;4941987;28;21383;-39
2023/10/10 14:47:58;;;;;;;9.88;3.97;;;26.10;99.90;;;;;;4942943;28;20187;-36
2023/10/10 14:50:28;;;;;;;8.45;4.70;;;26.20;99.90;;;;;;4941469;28;20268;-38
2023/10/10 14:52:56;;;;;;;8.02;4.10;;;26.20;99.90;;;;;;4927191;28;20287;-40
2023/10/10 14:55:32;;;;;;;12.30;4.45;;;26.20;99.90;;;;;;4918846;28;20256;-40
2023/10/10 14:58:07;;;;;;;12.50;4.63;;;26.20;99.90;;;;;;4945575;28;20192;-39
2023/10/10 15:00:39;;;;;;;9.45;4.53;;;26.10;99.90;;;;;;4961530;28;20208;-40
2023/10/10 15:03:12;;;;;;;7.15;4.30;;;26.10;99.90;;;;;;4930755;28;20192;-39
2023/10/10 15:05:51;;;;;;;10.30;4.22;;;26.10;99.90;;;;;;4930378;28;20188;-40
2023/10/10 15:08:19;;;;;;;9.30;4.55;;;26.10;99.90;;;;;;4928886;28;20190;-40
2023/10/10 15:10:53;;;;;;;9.15;4.20;;;25.90;99.90;;;;;;4943180;28;20251;-36
2023/10/10 15:13:19;;;;;;;8.10;3.72;;;25.80;99.90;;;;;;4928076;28;20227;-39
2023/10/10 15:15:46;;;;;;;7.95;3.58;;;25.80;99.90;;;;;;4926979;28;20205;-39
2023/10/10 15:18:18;;;;;;;9.07;3.45;;;25.70;99.90;;;;;;4963067;28;20177;-39
2023/10/10 15:20:46;;;;;;;10.55;3.92;;;25.60;99.90;;;;;;4935606;28;20297;-39
2023/10/10 15:23:18;;;;;;;7.85;3.90;;;25.50;99.90;;;;;;4930267;28;20201;-39
2023/10/10 15:25:45;;;;;;;10.82;4.38;;;25.40;99.90;;;;;;4930314;28;20189;-39
2023/10/10 15:28:12;;;;;;;10.05;4.00;;;25.40;99.90;;;;;;4948329;28;20188;-39
2023/10/10 15:30:41;;;;;;;8.45;4.60;;;25.40;99.90;;;;;;4943174;28;20205;-40
2023/10/10 15:33:07;;;;;;;9.32;4.47;;;25.30;99.90;;;;;;4927164;28;20264;-37
2023/10/10 15:35:39;;;;;;;10.93;4.38;;;25.30;99.90;;;;;;4937505;28;20192;-40
2023/10/10 15:38:11;;;;;;;11.93;4.22;;;25.20;99.90;;;;;;4937828;28;20182;-39
2023/10/10 15:40:41;;;;;;;15.98;4.50;;;25.10;99.90;;;;;;4933057;28;20204;-39
2023/10/10 15:43:11;;;;;;;10.73;4.53;;;25.10;99.90;;;;;;4954151;28;20221;-39
2023/10/10 15:45:44;;;;;;;8.20;4.18;;;25.00;99.90;;;;;;4922612;28;20213;-39
2023/10/10 15:48:32;;;;;;;11.40;4.72;;;24.90;99.90;;;;;;4930507;28;20185;-39
2023/10/10 15:50:59;;;;;;;9.75;4.57;;;24.70;99.90;;;;;;4961239;28;20208;-40
2023/10/10 15:53:26;;;;;;;12.85;4.43;;;24.60;99.90;;;;;;4946017;28;20187;-39
2023/10/10 15:56:10;;;;;;;8.57;3.90;;;24.50;99.90;;;;;;4942851;28;20249;-40
2023/10/10 15:58:39;;;;;;;7.35;4.43;;;24.30;99.90;;;;;;4942650;28;20268;-37
2023/10/10 16:01:15;;;;;;;10.32;4.30;;;24.10;99.90;;;;;;4946340;28;20211;-39
2023/10/10 16:03:51;;;;;;;9.60;4.82;;;23.90;99.90;;;;;;4944385;28;20177;-39
2023/10/10 16:06:19;;;;;;;7.57;4.22;;;23.80;99.90;;;;;;4946623;28;20197;-39
2023/10/10 16:08:51;;;;;;;9.35;4.15;;;23.60;99.90;;;;;;4926320;28;20181;-39
2023/10/10 16:11:20;;;;;;;10.20;4.53;;;23.30;99.90;;;;;;4941782;28;20236;-40